Strona główna
METAR-TAF:

METAR-TAF

Lotnisko :

Asheboro Regional Airport

Asheboro, Karolina Północna, Stany Zjednoczone

Szerokość geograficzna: 35-39-14N, Długość geograficzna: 079-53-42W, wysokość: 205 m

Aktualna obserwacja pogody

Raport powstał 25 minut temu, godzina 06:35 UTC
Cisza
Temperatura -2°C
Wilgotność 59%
Ciśnienie 1029 hPa
Widzialność: 16.1 km
bezchmurnie

METAR: KHBI 230635Z AUTO 00000KT 10SM CLR M02/M09 A3039 RMK AO2 T10221087

czas: 02:00 (07:00 UTC)


TAF: brakujący

Obserwacja i prognoza pogody dla ponad 4000 lotnisk (raport METAR i TAF).

Dostępne stacje oznaczono żółtymi i czerwonymi punktami na mapie.

Najedź kursorem aby zobaczyć nazwę stacji.

Kliknij aby zobaczyć obserwacje i prognozy pogody.

Aby zmienić mapę: kliknij na zielony przycisk z czarnym krzyżykiem, aby powiększyć; na zielony przycisk z myślnikiem, aby pomniejszyć; na zielone strzałki, aby przejść do map sąsiednich.


METAR-TAF: